Airfield :
LOGIN :

Register | Disclaimer

   EN    FR    IT 

 










Legend :    VFR   Marginal VFR   IFR   Intensive IFR   Very Intensive IFR
Visi :
Ceiling :
>= 8 km
>= 3000ft
5 to 8 km
1000 to 3000 ft
1500m to 5 km
500 to 1000 ft
800 to 1500m
200 to 500 ft
< 800m
< 200 ft
Symbols :   Thunderstorms  Fog  Heavy snow  Heavy precipitations  Wind > 20 kt
SIGMETs :     Misc.  Thunderstorms  Icing  Turbulence  Mountain Waves  Volcanic Ashes







- Airport Elevation : 28 ft
- IATA code : SOZ
- Download approach charts


LFKS - Solenzara

CURRENT METAR :
  • 240830Z AUTO 13006KT 100V160 CAVOK 28/21 Q1018

EXPIRED METARs :
  • 240800Z AUTO 12005KT 090V150 CAVOK 28/21 Q1018
  • 240730Z AUTO 10005KT CAVOK 28/20 Q1018
  • 240700Z AUTO 12004KT 080V150 CAVOK 27/21 Q1018
  • 240630Z AUTO VRB03KT CAVOK 27/20 Q1018
  • 240600Z AUTO 00000KT CAVOK 27/20 Q1018
  • 240530Z AUTO 27003KT 240V300 CAVOK 25/15 Q1018

TAF TAF LFKS
Valid from the 23 at 09:00 until the 24 at 09:00 UTC


230800Z 2309/2409 12008KT CAVOK
No reported NOTAMs for that airfield.



MET'MAP, your aeronautical weather chart ! - Copyright ORBIFLY December 2007 - Disclaimer

ORBIFLY MET'MAP TEAM :

Programming & Development : Alexandra Zaïnal
Concept & Development : Baudouin d'Aumeries
Co-Development & Prog : Marc-Olivier Méhu
Technical & hardware support : Manuel Goepfert

Contact : metmap@orbifly.com




SOURCES & CREDITS :

   NOAA